createdAt,value
2022-10-28T00:00:27.387Z,1007.43
2022-10-28T00:01:27.467Z,1007.47
2022-10-28T00:02:27.405Z,1007.49
2022-10-28T00:03:27.357Z,1007.42
2022-10-28T00:04:27.399Z,1007.40
2022-10-28T00:05:27.337Z,1007.46
2022-10-28T00:06:27.313Z,1007.48
2022-10-28T00:07:27.306Z,1007.46
2022-10-28T00:08:27.438Z,1007.54
2022-10-28T00:09:27.286Z,1007.52
2022-10-28T00:10:27.315Z,1007.53
2022-10-28T00:11:27.227Z,1007.52
2022-10-28T00:12:27.240Z,1007.51
2022-10-28T00:13:27.207Z,1007.48
2022-10-28T00:14:27.232Z,1007.55
2022-10-28T00:15:27.207Z,1007.49
2022-10-28T00:16:27.166Z,1007.44
2022-10-28T00:17:27.166Z,1007.47
2022-10-28T00:18:27.157Z,1007.51
2022-10-28T00:19:27.158Z,1007.47
2022-10-28T00:20:27.140Z,1007.48
2022-10-28T00:21:27.116Z,1007.43
2022-10-28T00:22:27.107Z,1007.42
2022-10-28T00:23:27.079Z,1007.43
2022-10-28T00:24:27.100Z,1007.45
2022-10-28T00:25:27.058Z,1007.39
2022-10-28T00:26:27.048Z,1007.44
2022-10-28T00:27:27.038Z,1007.48
2022-10-28T00:28:27.065Z,1007.45
2022-10-28T00:29:27.029Z,1007.44
2022-10-28T00:30:27.049Z,1007.36
2022-10-28T00:31:26.978Z,1007.34
2022-10-28T00:32:26.957Z,1007.30
2022-10-28T00:33:26.955Z,1007.31
2022-10-28T00:34:26.962Z,1007.35
2022-10-28T00:35:26.919Z,1007.33
2022-10-28T00:36:26.898Z,1007.20
2022-10-28T00:37:26.911Z,1007.19
2022-10-28T00:38:26.887Z,1007.27
2022-10-28T00:39:26.877Z,1007.29
2022-10-28T00:40:26.879Z,1007.32
2022-10-28T00:41:26.878Z,1007.36
2022-10-28T00:42:26.832Z,1007.41
2022-10-28T00:44:27.829Z,1007.42
2022-10-28T00:45:26.780Z,1007.45
2022-10-28T00:46:26.788Z,1007.46
2022-10-28T00:47:26.760Z,1007.44
2022-10-28T00:48:26.760Z,1007.40
2022-10-28T00:49:26.751Z,1007.39
2022-10-28T00:50:26.728Z,1007.33
2022-10-28T00:51:26.710Z,1007.32
2022-10-28T00:52:26.690Z,1007.35
2022-10-28T00:53:26.679Z,1007.29
2022-10-28T00:54:26.680Z,1007.29
2022-10-28T00:55:26.648Z,1007.28
2022-10-28T00:57:26.650Z,1007.19
2022-10-28T00:58:26.620Z,1007.27
2022-10-28T00:59:26.620Z,1007.22
2022-10-28T01:00:26.585Z,1007.13
2022-10-28T01:01:26.706Z,1007.13
2022-10-28T01:02:26.672Z,1007.21
2022-10-28T01:03:26.542Z,1007.24
2022-10-28T01:04:26.552Z,1007.24
2022-10-28T01:05:26.510Z,1007.18
2022-10-28T01:06:26.502Z,1007.13
2022-10-28T01:07:26.497Z,1007.09
2022-10-28T01:08:26.472Z,1007.09
2022-10-28T01:09:26.501Z,1007.10
2022-10-28T01:10:26.453Z,1007.09
2022-10-28T01:11:26.444Z,1007.08
2022-10-28T01:12:26.424Z,1007.04
2022-10-28T01:13:26.403Z,1007.06
2022-10-28T01:14:26.412Z,1007.09
2022-10-28T01:15:26.386Z,1007.08
2022-10-28T01:16:26.381Z,1007.12
2022-10-28T01:17:26.350Z,1007.16
2022-10-28T01:18:26.343Z,1007.10
2022-10-28T01:19:26.363Z,1007.15
2022-10-28T01:20:26.328Z,1007.13
2022-10-28T01:21:26.294Z,1007.13
2022-10-28T01:22:26.342Z,1007.10
2022-10-28T01:23:26.270Z,1007.05
2022-10-28T01:24:26.281Z,1007.04
2022-10-28T01:25:26.248Z,1007.02
2022-10-28T01:26:26.252Z,1006.96
2022-10-28T01:27:26.201Z,1007.01
2022-10-28T01:28:26.201Z,1007.05
2022-10-28T01:29:26.192Z,1007.04
2022-10-28T01:30:26.195Z,1007.03
2022-10-28T01:31:26.180Z,1007.00
2022-10-28T01:32:26.172Z,1007.02
2022-10-28T01:33:26.142Z,1006.98
2022-10-28T01:34:26.146Z,1006.94
2022-10-28T01:35:26.169Z,1007.00
2022-10-28T01:36:26.131Z,1007.02
2022-10-28T01:37:26.092Z,1007.08
2022-10-28T01:38:26.122Z,1007.01
2022-10-28T01:39:26.070Z,1007.14
2022-10-28T01:40:26.031Z,1007.06
2022-10-28T01:41:26.030Z,1007.09
2022-10-28T01:42:26.011Z,1007.10
2022-10-28T01:43:25.983Z,1007.03
2022-10-28T01:44:26.012Z,1007.02
2022-10-28T01:45:25.971Z,1007.03
2022-10-28T01:46:25.962Z,1007.04
2022-10-28T01:47:25.943Z,1007.03
2022-10-28T01:48:25.984Z,1007.03
2022-10-28T01:49:25.934Z,1007.05
2022-10-28T01:50:25.911Z,1006.99
2022-10-28T01:51:26.005Z,1006.96
2022-10-28T01:52:25.880Z,1006.93
2022-10-28T01:53:25.863Z,1006.99
2022-10-28T01:54:25.871Z,1007.02
2022-10-28T01:55:25.823Z,1006.97
2022-10-28T01:56:25.823Z,1006.94
2022-10-28T01:57:25.803Z,1006.94
2022-10-28T01:58:25.806Z,1006.92
2022-10-28T01:59:25.814Z,1006.92
2022-10-28T02:00:25.801Z,1006.92
2022-10-28T02:01:25.899Z,1006.89
2022-10-28T02:02:25.732Z,1006.87
2022-10-28T02:03:25.723Z,1006.83
2022-10-28T02:04:25.721Z,1006.79
2022-10-28T02:05:25.714Z,1006.75
2022-10-28T02:06:25.711Z,1006.71
2022-10-28T02:07:25.673Z,1006.76
2022-10-28T02:08:25.666Z,1006.72
2022-10-28T02:09:25.653Z,1006.70
2022-10-28T02:10:25.663Z,1006.72
2022-10-28T02:11:25.616Z,1006.71
2022-10-28T02:12:25.612Z,1006.71
2022-10-28T02:13:25.593Z,1006.68
2022-10-28T02:14:25.585Z,1006.67
2022-10-28T02:15:25.583Z,1006.67
2022-10-28T02:16:25.555Z,1006.63
2022-10-28T02:17:25.546Z,1006.66
2022-10-28T02:18:25.535Z,1006.69
2022-10-28T02:19:25.570Z,1006.62
2022-10-28T02:20:25.506Z,1006.62
2022-10-28T02:21:25.485Z,1006.64
2022-10-28T02:22:25.492Z,1006.65
2022-10-28T02:23:25.455Z,1006.67
2022-10-28T02:24:25.459Z,1006.62
2022-10-28T02:25:25.447Z,1006.59
2022-10-28T02:26:25.415Z,1006.58
2022-10-28T02:27:25.425Z,1006.57
2022-10-28T02:28:25.394Z,1006.60
2022-10-28T02:29:25.365Z,1006.55
2022-10-28T02:30:25.385Z,1006.60
2022-10-28T02:31:25.339Z,1006.51
2022-10-28T02:32:25.348Z,1006.52
2022-10-28T02:33:25.315Z,1006.51
2022-10-28T02:34:25.306Z,1006.49
2022-10-28T02:35:25.305Z,1006.54
2022-10-28T02:36:25.296Z,1006.52
2022-10-28T02:37:25.266Z,1006.46
2022-10-28T02:38:25.249Z,1006.47
2022-10-28T02:39:25.236Z,1006.55
2022-10-28T02:40:25.257Z,1006.53
2022-10-28T02:41:25.206Z,1006.46
2022-10-28T02:42:25.196Z,1006.41
2022-10-28T02:43:25.198Z,1006.41
2022-10-28T02:44:25.177Z,1006.44
2022-10-28T02:45:25.176Z,1006.42
2022-10-28T02:46:25.161Z,1006.39
2022-10-28T02:47:25.126Z,1006.33
2022-10-28T02:49:32.901Z,1006.40
2022-10-28T02:50:32.879Z,1006.40
2022-10-28T02:51:32.845Z,1006.41
2022-10-28T02:52:32.842Z,1006.41
2022-10-28T02:53:32.814Z,1006.40
2022-10-28T02:54:32.807Z,1006.41
2022-10-28T02:55:32.811Z,1006.42
2022-10-28T02:56:32.806Z,1006.41
2022-10-28T02:57:32.763Z,1006.38
2022-10-28T02:58:32.754Z,1006.37
2022-10-28T02:59:32.732Z,1006.34
2022-10-28T03:00:32.752Z,1006.27
2022-10-28T03:01:32.849Z,1006.29
2022-10-28T03:02:32.702Z,1006.28
2022-10-28T03:03:32.683Z,1006.20
2022-10-28T03:04:32.682Z,1006.18
2022-10-28T03:05:32.682Z,1006.26
2022-10-28T03:06:32.653Z,1006.27
2022-10-28T03:07:32.637Z,1006.27
2022-10-28T03:08:32.933Z,1006.27
2022-10-28T03:09:32.604Z,1006.29
2022-10-28T03:10:32.633Z,1006.27
2022-10-28T03:11:32.577Z,1006.24
2022-10-28T03:12:32.582Z,1006.21
2022-10-28T03:13:32.573Z,1006.23
2022-10-28T03:14:32.543Z,1006.20
2022-10-28T03:15:32.531Z,1006.17
2022-10-28T03:16:32.533Z,1006.18
2022-10-28T03:17:32.495Z,1006.20
2022-10-28T03:18:32.491Z,1006.24
2022-10-28T03:19:32.482Z,1006.22
2022-10-28T03:20:32.494Z,1006.25
2022-10-28T03:21:32.476Z,1006.30
2022-10-28T03:22:32.418Z,1006.34
2022-10-28T03:23:32.415Z,1006.32
2022-10-28T03:24:32.407Z,1006.33
2022-10-28T03:25:32.384Z,1006.37
2022-10-28T03:26:32.395Z,1006.34
2022-10-28T03:27:32.354Z,1006.34
2022-10-28T03:28:32.352Z,1006.34
2022-10-28T03:29:32.335Z,1006.30
2022-10-28T03:30:32.354Z,1006.28
2022-10-28T03:31:32.305Z,1006.28
2022-10-28T03:32:32.303Z,1006.22
2022-10-28T03:33:32.285Z,1006.25
2022-10-28T03:34:32.277Z,1006.25
2022-10-28T03:35:32.263Z,1006.27
2022-10-28T03:36:32.267Z,1006.24
2022-10-28T03:37:32.233Z,1006.29
2022-10-28T03:38:32.215Z,1006.30
2022-10-28T03:39:32.185Z,1006.31
2022-10-28T03:40:32.185Z,1006.40
2022-10-28T03:41:32.186Z,1006.41
2022-10-28T03:42:32.156Z,1006.44
2022-10-28T03:43:32.146Z,1006.46
2022-10-28T03:44:32.135Z,1006.47
2022-10-28T03:45:32.128Z,1006.41
2022-10-28T03:46:35.095Z,1006.47
2022-10-28T03:47:32.138Z,1006.43
2022-10-28T03:48:32.087Z,1006.41
2022-10-28T03:49:32.067Z,1006.42
2022-10-28T03:50:32.068Z,1006.41
2022-10-28T03:51:32.069Z,1006.44
2022-10-28T03:52:32.029Z,1006.41
2022-10-28T03:53:32.017Z,1006.37
2022-10-28T03:54:32.006Z,1006.45
2022-10-28T03:55:31.979Z,1006.41
2022-10-28T03:56:31.997Z,1006.38
2022-10-28T03:57:31.980Z,1006.42
2022-10-28T03:58:31.979Z,1006.46
2022-10-28T03:59:31.917Z,1006.43
2022-10-28T04:00:31.935Z,1006.39
2022-10-28T04:01:32.028Z,1006.37
2022-10-28T04:02:32.021Z,1006.41
2022-10-28T04:03:31.879Z,1006.43
2022-10-28T04:04:31.857Z,1006.37
2022-10-28T04:05:31.848Z,1006.40
2022-10-28T04:06:31.860Z,1006.40
2022-10-28T04:07:31.825Z,1006.42
2022-10-28T04:08:31.808Z,1006.40
2022-10-28T04:09:31.797Z,1006.39
2022-10-28T04:10:31.789Z,1006.31
2022-10-28T04:11:31.805Z,1006.36
2022-10-28T04:12:31.760Z,1006.36
2022-10-28T04:13:31.736Z,1006.37
2022-10-28T04:14:31.727Z,1006.27
2022-10-28T04:15:31.716Z,1006.37
2022-10-28T04:16:31.718Z,1006.37
2022-10-28T04:17:31.687Z,1006.27
2022-10-28T04:18:31.667Z,1006.32
2022-10-28T04:19:31.664Z,1006.30
2022-10-28T04:20:31.647Z,1006.33
2022-10-28T04:21:31.649Z,1006.29
2022-10-28T04:22:31.607Z,1006.29
2022-10-28T04:23:31.662Z,1006.31
2022-10-28T04:24:31.588Z,1006.33
2022-10-28T04:25:31.588Z,1006.28
2022-10-28T04:26:31.578Z,1006.25
2022-10-28T04:27:31.557Z,1006.28
2022-10-28T04:28:31.531Z,1006.27
2022-10-28T04:29:31.529Z,1006.26
2022-10-28T04:30:31.515Z,1006.25
2022-10-28T04:31:31.529Z,1006.24
2022-10-28T04:32:31.479Z,1006.15
2022-10-28T04:33:31.471Z,1006.14
2022-10-28T04:34:31.445Z,1006.16
2022-10-28T04:35:31.451Z,1006.21
2022-10-28T04:36:31.428Z,1006.20
2022-10-28T04:37:31.428Z,1006.20
2022-10-28T04:38:31.398Z,1006.22
2022-10-28T04:39:31.381Z,1006.19
2022-10-28T04:40:31.368Z,1006.21
2022-10-28T04:41:31.359Z,1006.17
2022-10-28T04:42:31.377Z,1006.18
2022-10-28T04:43:31.369Z,1006.17
2022-10-28T04:44:31.320Z,1006.15
2022-10-28T04:45:31.309Z,1006.12
2022-10-28T04:46:31.289Z,1006.08
2022-10-28T04:47:31.308Z,1006.12
2022-10-28T04:48:31.290Z,1006.04
2022-10-28T04:49:34.302Z,1005.98
2022-10-28T04:50:32.233Z,1006.02
2022-10-28T04:51:31.249Z,1005.95
2022-10-28T04:52:31.220Z,1005.96
2022-10-28T04:53:31.201Z,1005.91
2022-10-28T04:54:31.180Z,1005.86
2022-10-28T04:55:31.188Z,1005.91
2022-10-28T04:56:31.390Z,1005.89
2022-10-28T04:57:31.149Z,1005.85
2022-10-28T04:58:31.121Z,1005.87
2022-10-28T04:59:31.120Z,1005.86
2022-10-28T05:00:36.837Z,1005.90
2022-10-28T05:01:35.605Z,1005.87
2022-10-28T05:02:31.526Z,1005.86
2022-10-28T05:03:31.777Z,1005.89
2022-10-28T05:04:34.408Z,1005.81
2022-10-28T05:05:31.050Z,1005.83
2022-10-28T05:06:31.047Z,1005.83
2022-10-28T05:07:31.033Z,1005.88
2022-10-28T05:08:30.992Z,1005.85
2022-10-28T05:09:30.990Z,1005.87
2022-10-28T05:10:30.975Z,1005.91
2022-10-28T05:11:30.992Z,1005.87
2022-10-28T05:12:30.941Z,1005.87
2022-10-28T05:13:30.934Z,1005.84
2022-10-28T05:14:30.911Z,1005.84
2022-10-28T05:15:30.900Z,1005.84
2022-10-28T05:16:30.905Z,1005.83
2022-10-28T05:17:30.883Z,1005.86
2022-10-28T05:18:30.884Z,1005.84
2022-10-28T05:19:30.858Z,1005.84
2022-10-28T05:20:30.839Z,1005.82
2022-10-28T05:21:30.865Z,1005.83
2022-10-28T05:22:30.808Z,1005.80
2022-10-28T05:23:31.139Z,1005.80
2022-10-28T05:24:30.903Z,1005.83
2022-10-28T05:25:30.774Z,1005.86
2022-10-28T05:26:30.842Z,1005.82
2022-10-28T05:27:30.766Z,1005.82
2022-10-28T05:28:30.731Z,1005.80
2022-10-28T05:29:33.283Z,1005.82
2022-10-28T05:30:30.701Z,1005.78
2022-10-28T05:31:30.710Z,1005.80
2022-10-28T05:32:30.683Z,1005.80
2022-10-28T05:33:30.667Z,1005.78
2022-10-28T05:34:30.655Z,1005.78
2022-10-28T05:35:30.650Z,1005.70
2022-10-28T05:36:30.642Z,1005.74
2022-10-28T05:37:30.612Z,1005.71
2022-10-28T05:38:30.592Z,1005.75
2022-10-28T05:39:30.604Z,1005.73
2022-10-28T05:40:30.573Z,1005.74
2022-10-28T05:41:33.057Z,1005.68
2022-10-28T05:42:30.554Z,1005.71
2022-10-28T05:43:30.534Z,1005.76
2022-10-28T05:44:30.515Z,1005.78
2022-10-28T05:46:30.502Z,1005.79
2022-10-28T05:47:30.507Z,1005.77
2022-10-28T05:48:30.454Z,1005.81
2022-10-28T05:49:30.463Z,1005.81
2022-10-28T05:50:30.434Z,1005.76
2022-10-28T05:51:30.542Z,1005.86
2022-10-28T05:52:30.453Z,1005.86
2022-10-28T05:53:30.403Z,1005.85
2022-10-28T05:54:30.394Z,1005.89
2022-10-28T05:55:30.371Z,1005.91
2022-10-28T05:56:30.370Z,1005.91
2022-10-28T05:57:30.385Z,1005.92
2022-10-28T05:58:30.314Z,1005.95
2022-10-28T05:59:30.344Z,1005.96
2022-10-28T06:00:30.303Z,1005.95
2022-10-28T06:01:30.341Z,1005.95
2022-10-28T06:02:30.294Z,1005.92
2022-10-28T06:03:31.375Z,1005.91
2022-10-28T06:04:30.247Z,1005.92
2022-10-28T06:05:30.232Z,1005.93
2022-10-28T06:06:30.212Z,1005.85
2022-10-28T06:07:30.213Z,1005.94
2022-10-28T06:08:30.195Z,1005.90
2022-10-28T06:09:30.173Z,1005.96
2022-10-28T06:10:30.185Z,1005.92
2022-10-28T06:11:28.645Z,1005.96
2022-10-28T06:12:28.665Z,1006.03
2022-10-28T06:13:28.606Z,1006.02
2022-10-28T06:14:28.575Z,1006.09
2022-10-28T06:15:28.565Z,1006.05
2022-10-28T06:16:28.543Z,1006.09
2022-10-28T06:17:28.588Z,1006.09
2022-10-28T06:18:28.516Z,1006.10
2022-10-28T06:19:28.843Z,1006.09
2022-10-28T06:20:28.715Z,1006.13
2022-10-28T06:21:28.996Z,1006.14
2022-10-28T06:22:29.350Z,1006.18
2022-10-28T06:23:29.047Z,1006.13
2022-10-28T06:24:28.449Z,1006.16
2022-10-28T06:25:28.472Z,1006.16
2022-10-28T06:26:28.432Z,1006.17
2022-10-28T06:27:28.433Z,1006.12
2022-10-28T06:28:28.407Z,1006.11
2022-10-28T06:29:28.405Z,1006.11
2022-10-28T06:30:28.397Z,1006.13
2022-10-28T06:31:28.376Z,1006.10
2022-10-28T06:32:28.401Z,1006.12
2022-10-28T06:33:28.340Z,1006.17
2022-10-28T06:34:28.320Z,1006.14
2022-10-28T06:35:28.308Z,1006.23
2022-10-28T06:36:28.292Z,1006.22
2022-10-28T06:37:28.312Z,1006.26
2022-10-28T06:38:28.283Z,1006.25
2022-10-28T06:39:28.264Z,1006.20
2022-10-28T06:40:28.324Z,1006.23
2022-10-28T06:41:28.284Z,1006.26
2022-10-28T06:42:28.239Z,1006.23
2022-10-28T06:43:28.227Z,1006.22
2022-10-28T06:44:28.202Z,1006.25
2022-10-28T06:45:28.216Z,1006.29
2022-10-28T06:46:28.180Z,1006.27
2022-10-28T06:47:29.704Z,1006.35
2022-10-28T06:48:29.667Z,1006.37
2022-10-28T06:49:29.657Z,1006.37
2022-10-28T06:50:29.660Z,1006.33
2022-10-28T06:51:29.653Z,1006.32
2022-10-28T06:52:29.589Z,1006.30
2022-10-28T06:53:29.612Z,1006.30
2022-10-28T06:54:30.324Z,1006.31
2022-10-28T06:55:29.592Z,1006.29
2022-10-28T06:56:29.575Z,1006.30
2022-10-28T06:57:29.554Z,1006.30
2022-10-28T06:58:29.565Z,1006.27
2022-10-28T06:59:29.516Z,1006.36
2022-10-28T07:01:29.679Z,1006.40
2022-10-28T07:02:29.599Z,1006.45
2022-10-28T07:03:29.548Z,1006.49
2022-10-28T07:04:29.468Z,1006.50
2022-10-28T07:05:29.460Z,1006.48
2022-10-28T07:06:29.452Z,1006.55
2022-10-28T07:07:29.423Z,1006.55
2022-10-28T07:08:29.393Z,1006.58
2022-10-28T07:09:29.579Z,1006.54
2022-10-28T07:10:29.409Z,1006.52
2022-10-28T07:11:29.388Z,1006.53
2022-10-28T07:12:29.364Z,1006.51
2022-10-28T07:13:29.822Z,1006.53
2022-10-28T07:14:29.329Z,1006.40
2022-10-28T07:15:29.329Z,1006.45
2022-10-28T07:16:29.320Z,1006.43
2022-10-28T07:17:29.333Z,1006.39
2022-10-28T07:18:29.282Z,1006.38
2022-10-28T07:19:29.293Z,1006.35
2022-10-28T07:20:29.253Z,1006.38
2022-10-28T07:21:29.284Z,1006.37
2022-10-28T07:22:29.227Z,1006.38
2022-10-28T07:23:29.255Z,1006.34
2022-10-28T07:24:29.224Z,1006.36
2022-10-28T07:25:29.224Z,1006.33
2022-10-28T07:26:29.444Z,1006.38
2022-10-28T07:27:29.198Z,1006.39
2022-10-28T07:28:29.150Z,1006.42
2022-10-28T07:29:29.146Z,1006.42
2022-10-28T07:30:29.119Z,1006.41
2022-10-28T07:31:29.168Z,1006.40
2022-10-28T07:32:29.102Z,1006.44
2022-10-28T07:33:29.093Z,1006.47
2022-10-28T07:34:29.074Z,1006.52
2022-10-28T07:35:29.070Z,1006.58
2022-10-28T07:36:29.052Z,1006.58
2022-10-28T07:37:29.055Z,1006.65
2022-10-28T07:38:29.026Z,1006.58
2022-10-28T07:39:29.058Z,1006.53
2022-10-28T07:40:29.012Z,1006.53
2022-10-28T07:41:28.998Z,1006.50
2022-10-28T07:42:28.985Z,1006.52
2022-10-28T07:43:28.945Z,1006.49
2022-10-28T07:44:28.943Z,1006.49
2022-10-28T07:45:28.935Z,1006.49
2022-10-28T07:46:28.922Z,1006.45
2022-10-28T07:47:28.928Z,1006.46
2022-10-28T07:48:28.884Z,1006.44
2022-10-28T07:49:28.874Z,1006.43
2022-10-28T07:50:28.854Z,1006.50
2022-10-28T07:51:28.846Z,1006.54
2022-10-28T07:52:28.852Z,1006.51
2022-10-28T07:53:29.122Z,1006.55
2022-10-28T07:54:28.827Z,1006.54
2022-10-28T07:55:28.794Z,1006.56
2022-10-28T07:56:28.795Z,1006.60
2022-10-28T07:57:28.771Z,1006.65
2022-10-28T07:58:28.797Z,1006.63
2022-10-28T07:59:28.738Z,1006.59
2022-10-28T08:00:28.719Z,1006.56
2022-10-28T08:01:28.764Z,1006.55
2022-10-28T08:02:28.714Z,1006.51
2022-10-28T08:03:37.994Z,1006.50
2022-10-28T08:04:29.663Z,1006.53
2022-10-28T08:05:28.694Z,1006.51
2022-10-28T08:06:28.618Z,1006.52
2022-10-28T08:07:28.627Z,1006.52
2022-10-28T08:08:28.594Z,1006.57
2022-10-28T08:09:28.578Z,1006.57
2022-10-28T08:10:28.535Z,1006.55
2022-10-28T08:11:28.544Z,1006.56
2022-10-28T08:12:28.532Z,1006.54
2022-10-28T08:13:28.501Z,1006.60
2022-10-28T08:14:28.498Z,1006.54
2022-10-28T08:15:28.497Z,1006.56
2022-10-28T08:16:28.459Z,1006.59
2022-10-28T08:17:28.485Z,1006.59
2022-10-28T08:18:28.436Z,1006.60
2022-10-28T08:19:28.437Z,1006.54
2022-10-28T08:20:28.424Z,1006.59
2022-10-28T08:21:28.405Z,1006.63
2022-10-28T08:22:28.396Z,1006.57
2022-10-28T08:23:28.417Z,1006.58
2022-10-28T08:24:28.340Z,1006.56
2022-10-28T08:25:28.343Z,1006.55
2022-10-28T08:26:28.329Z,1006.55
2022-10-28T08:27:28.359Z,1006.58
2022-10-28T08:28:28.301Z,1006.55
2022-10-28T08:29:30.133Z,1006.57
2022-10-28T08:30:29.052Z,1006.57
2022-10-28T08:31:28.281Z,1006.59
2022-10-28T08:32:28.279Z,1006.58
2022-10-28T08:33:28.273Z,1006.56
2022-10-28T08:34:28.227Z,1006.52
2022-10-28T08:35:28.201Z,1006.54
2022-10-28T08:36:28.192Z,1006.53
2022-10-28T08:37:28.317Z,1006.56
2022-10-28T08:38:28.169Z,1006.56
2022-10-28T08:39:28.150Z,1006.59
2022-10-28T08:40:28.150Z,1006.58
2022-10-28T08:41:28.132Z,1006.57
2022-10-28T08:42:28.132Z,1006.55
2022-10-28T08:43:40.383Z,1006.51
2022-10-28T08:44:29.084Z,1006.53
2022-10-28T08:45:28.074Z,1006.51
2022-10-28T08:46:28.064Z,1006.49
2022-10-28T08:47:28.056Z,1006.49
2022-10-28T08:48:28.035Z,1006.47
2022-10-28T08:49:28.026Z,1006.52
2022-10-28T08:50:28.006Z,1006.52
2022-10-28T08:51:28.007Z,1006.49
2022-10-28T08:52:28.017Z,1006.47
2022-10-28T08:53:27.978Z,1006.50
2022-10-28T08:54:27.958Z,1006.48
2022-10-28T08:55:27.938Z,1006.47
2022-10-28T08:56:27.938Z,1006.51
2022-10-28T08:57:27.908Z,1006.48
2022-10-28T08:58:27.920Z,1006.48
2022-10-28T08:59:27.887Z,1006.49
2022-10-28T09:00:27.898Z,1006.54
2022-10-28T09:01:28.018Z,1006.48
2022-10-28T09:02:27.849Z,1006.45
2022-10-28T09:03:27.849Z,1006.44
2022-10-28T09:04:27.817Z,1006.44
2022-10-28T09:05:27.807Z,1006.46
2022-10-28T09:06:27.802Z,1006.48
2022-10-28T09:07:27.777Z,1006.50
2022-10-28T09:08:27.789Z,1006.50
2022-10-28T09:09:27.749Z,1006.49
2022-10-28T09:10:28.018Z,1006.53
2022-10-28T09:11:27.732Z,1006.52
2022-10-28T09:12:27.720Z,1006.51
2022-10-28T09:13:27.719Z,1006.50
2022-10-28T09:14:27.686Z,1006.53
2022-10-28T09:15:27.710Z,1006.55
2022-10-28T09:16:27.663Z,1006.55
2022-10-28T09:17:27.663Z,1006.53
2022-10-28T09:18:27.696Z,1006.52
2022-10-28T09:19:27.634Z,1006.54
2022-10-28T09:20:27.599Z,1006.49
2022-10-28T09:21:27.662Z,1006.47
2022-10-28T09:22:27.653Z,1006.50
2022-10-28T09:23:27.601Z,1006.51
2022-10-28T09:24:27.559Z,1006.43
2022-10-28T09:25:27.521Z,1006.45
2022-10-28T09:26:27.521Z,1006.46
2022-10-28T09:27:27.677Z,1006.46
2022-10-28T09:28:27.681Z,1006.44
2022-10-28T09:29:27.550Z,1006.41
2022-10-28T09:30:27.483Z,1006.38
2022-10-28T09:31:27.454Z,1006.35
2022-10-28T09:32:27.450Z,1006.38
2022-10-28T09:33:27.550Z,1006.35
2022-10-28T09:34:27.452Z,1006.39
2022-10-28T09:35:27.393Z,1006.39
2022-10-28T09:36:27.396Z,1006.31
2022-10-28T09:37:27.382Z,1006.32
2022-10-28T09:38:27.387Z,1006.32
2022-10-28T09:39:28.039Z,1006.27
2022-10-28T09:40:27.343Z,1006.28
2022-10-28T09:41:27.312Z,1006.22
2022-10-28T09:42:27.332Z,1006.20
2022-10-28T09:43:27.314Z,1006.19
2022-10-28T09:44:27.292Z,1006.20
2022-10-28T09:45:27.274Z,1006.21
2022-10-28T09:46:27.349Z,1006.21
2022-10-28T09:47:27.238Z,1006.22
2022-10-28T09:48:27.254Z,1006.26
2022-10-28T09:49:27.224Z,1006.29
2022-10-28T09:50:27.204Z,1006.29
2022-10-28T09:51:27.189Z,1006.34
2022-10-28T09:52:27.175Z,1006.31
2022-10-28T09:53:27.193Z,1006.34
2022-10-28T09:54:27.156Z,1006.34
2022-10-28T09:55:27.163Z,1006.34
2022-10-28T09:56:27.128Z,1006.37
2022-10-28T09:57:27.106Z,1006.37
2022-10-28T09:58:27.103Z,1006.37
2022-10-28T09:59:27.125Z,1006.38
2022-10-28T10:00:27.066Z,1006.38
2022-10-28T10:01:27.139Z,1006.40
2022-10-28T10:02:27.188Z,1006.46
2022-10-28T10:03:27.037Z,1006.47
2022-10-28T10:04:27.036Z,1006.46
2022-10-28T10:05:26.995Z,1006.49
2022-10-28T10:06:26.995Z,1006.45
2022-10-28T10:07:26.986Z,1006.44
2022-10-28T10:08:26.955Z,1006.46
2022-10-28T10:09:26.966Z,1006.44
2022-10-28T10:10:26.958Z,1006.48
2022-10-28T10:11:26.932Z,1006.46
2022-10-28T10:12:26.915Z,1006.47
2022-10-28T10:13:26.975Z,1006.42
2022-10-28T10:14:26.955Z,1006.39
2022-10-28T10:15:26.867Z,1006.39
2022-10-28T10:16:26.847Z,1006.39
2022-10-28T10:17:26.957Z,1006.39
2022-10-28T10:18:26.835Z,1006.40
2022-10-28T10:19:26.826Z,1006.39
2022-10-28T10:20:26.839Z,1006.39
2022-10-28T10:21:26.786Z,1006.41
2022-10-28T10:22:26.777Z,1006.41
2022-10-28T10:23:26.865Z,1006.39
2022-10-28T10:24:26.766Z,1006.36
2022-10-28T10:25:26.736Z,1006.38
2022-10-28T10:26:26.717Z,1006.39
2022-10-28T10:27:26.709Z,1006.37
2022-10-28T10:28:26.707Z,1006.37
2022-10-28T10:29:26.691Z,1006.37
2022-10-28T10:30:26.666Z,1006.33
2022-10-28T10:31:26.789Z,1006.35
2022-10-28T10:32:26.696Z,1006.32
2022-10-28T10:33:26.631Z,1006.32
2022-10-28T10:34:26.627Z,1006.30
2022-10-28T10:35:26.600Z,1006.29
2022-10-28T10:36:26.620Z,1006.23
2022-10-28T10:37:26.599Z,1006.24
2022-10-28T10:38:26.568Z,1006.24
2022-10-28T10:39:26.568Z,1006.23
2022-10-28T10:40:26.551Z,1006.20
2022-10-28T10:41:26.511Z,1006.20
2022-10-28T10:42:26.513Z,1006.17
2022-10-28T10:43:26.508Z,1006.20
2022-10-28T10:44:26.481Z,1006.20
2022-10-28T10:45:26.463Z,1006.19
2022-10-28T10:46:26.461Z,1006.17
2022-10-28T10:47:26.432Z,1006.16
2022-10-28T10:48:26.512Z,1006.16
2022-10-28T10:49:26.480Z,1006.15
2022-10-28T10:50:26.435Z,1006.13
2022-10-28T10:51:26.391Z,1006.15
2022-10-28T10:52:26.423Z,1006.15
2022-10-28T10:53:26.383Z,1006.10
2022-10-28T10:54:26.352Z,1006.07
2022-10-28T10:55:26.387Z,1006.07
2022-10-28T10:56:26.324Z,1006.03
2022-10-28T10:57:26.354Z,1005.99
2022-10-28T10:58:26.322Z,1006.01
2022-10-28T10:59:26.284Z,1005.96
2022-10-28T11:00:26.271Z,1005.98
2022-10-28T11:01:26.385Z,1005.96
2022-10-28T11:02:26.347Z,1005.95
2022-10-28T11:03:26.242Z,1005.98
2022-10-28T11:04:26.211Z,1005.95
2022-10-28T11:05:29.262Z,1005.94
2022-10-28T11:06:27.195Z,1005.94
2022-10-28T11:07:26.162Z,1005.92
2022-10-28T11:08:26.192Z,1005.93
2022-10-28T11:09:26.143Z,1005.89
2022-10-28T11:10:26.124Z,1005.87
2022-10-28T11:11:26.114Z,1005.88
2022-10-28T11:12:26.148Z,1005.87
2022-10-28T11:13:26.130Z,1005.85
2022-10-28T11:14:26.097Z,1005.81
2022-10-28T11:15:26.081Z,1005.76
2022-10-28T11:16:26.055Z,1005.73
2022-10-28T11:17:26.134Z,1005.73
2022-10-28T11:18:26.043Z,1005.72
2022-10-28T11:19:26.130Z,1005.71
2022-10-28T11:20:25.999Z,1005.71
2022-10-28T11:21:26.143Z,1005.67
2022-10-28T11:22:25.983Z,1005.66
2022-10-28T11:23:25.986Z,1005.63
2022-10-28T11:24:25.949Z,1005.62
2022-10-28T11:25:25.921Z,1005.62
2022-10-28T11:26:25.909Z,1005.60
2022-10-28T11:27:25.919Z,1005.61
2022-10-28T11:28:25.928Z,1005.60
2022-10-28T11:29:25.874Z,1005.62
2022-10-28T11:30:25.866Z,1005.61
2022-10-28T11:31:25.874Z,1005.59
2022-10-28T11:32:25.828Z,1005.57
2022-10-28T11:33:30.791Z,1005.56
2022-10-28T11:34:26.808Z,1005.57
2022-10-28T11:35:25.827Z,1005.61
2022-10-28T11:36:25.777Z,1005.59
2022-10-28T11:37:25.756Z,1005.58
2022-10-28T11:38:25.782Z,1005.58
2022-10-28T11:39:25.728Z,1005.57
2022-10-28T11:40:25.721Z,1005.59
2022-10-28T11:41:25.711Z,1005.58
2022-10-28T11:42:25.698Z,1005.58
2022-10-28T11:43:25.686Z,1005.57
2022-10-28T11:44:25.759Z,1005.54
2022-10-28T11:45:25.649Z,1005.51
2022-10-28T11:46:25.701Z,1005.54
2022-10-28T11:47:25.630Z,1005.51
2022-10-28T11:48:25.624Z,1005.45
2022-10-28T11:49:25.600Z,1005.43
2022-10-28T11:50:25.591Z,1005.43
2022-10-28T11:51:25.563Z,1005.41
2022-10-28T11:52:25.558Z,1005.45
2022-10-28T11:53:25.538Z,1005.46
2022-10-28T11:54:25.567Z,1005.39
2022-10-28T11:55:25.501Z,1005.40
2022-10-28T11:56:25.549Z,1005.40
2022-10-28T11:57:25.490Z,1005.37
2022-10-28T11:58:25.537Z,1005.35
2022-10-28T11:59:25.481Z,1005.33
2022-10-28T12:00:25.517Z,1005.34
2022-10-28T12:01:25.446Z,1005.35
2022-10-28T12:02:25.533Z,1005.34
2022-10-28T12:03:25.506Z,1005.31
2022-10-28T12:04:25.413Z,1005.30
2022-10-28T12:05:25.372Z,1005.30
2022-10-28T12:06:25.404Z,1005.30
2022-10-28T12:07:25.341Z,1005.24
2022-10-28T12:08:25.370Z,1005.26
2022-10-28T12:09:25.325Z,1005.20
2022-10-28T12:10:25.410Z,1005.20